createdAt,value
2022-12-05T00:01:26.345Z,22.77
2022-12-05T00:03:59.301Z,22.05
2022-12-05T00:06:28.299Z,21.27
2022-12-05T00:08:55.307Z,21.98
2022-12-05T00:11:25.488Z,21.45
2022-12-05T00:13:54.081Z,21.17
2022-12-05T00:16:23.651Z,20.92
2022-12-05T00:18:51.209Z,18.90
2022-12-05T00:21:21.085Z,20.05
2022-12-05T00:23:47.788Z,20.63
2022-12-05T00:26:14.742Z,20.85
2022-12-05T00:28:41.559Z,21.98
2022-12-05T00:31:13.808Z,20.10
2022-12-05T00:33:40.739Z,22.73
2022-12-05T00:36:12.933Z,22.95
2022-12-05T00:38:39.967Z,16.70
2022-12-05T00:41:09.626Z,20.65
2022-12-05T00:43:36.752Z,22.80
2022-12-05T00:46:08.529Z,13.32
2022-12-05T00:48:36.866Z,22.33
2022-12-05T00:51:05.631Z,21.90
2022-12-05T00:53:32.907Z,18.55
2022-12-05T00:56:08.568Z,24.08
2022-12-05T00:58:38.300Z,19.02
2022-12-05T01:01:10.505Z,19.55
2022-12-05T01:03:37.283Z,14.50
2022-12-05T01:06:06.125Z,18.48
2022-12-05T01:08:34.580Z,20.17
2022-12-05T01:11:01.485Z,18.98
2022-12-05T01:13:28.644Z,22.58
2022-12-05T01:15:55.736Z,21.05
2022-12-05T01:18:23.844Z,18.92
2022-12-05T01:20:50.679Z,20.23
2022-12-05T01:23:17.607Z,22.30
2022-12-05T01:25:48.451Z,20.50
2022-12-05T01:28:16.010Z,17.48
2022-12-05T01:30:45.250Z,18.42
2022-12-05T01:33:13.592Z,22.30
2022-12-05T01:35:41.346Z,23.48
2022-12-05T01:38:08.747Z,22.48
2022-12-05T01:40:36.265Z,20.40
2022-12-05T01:43:03.765Z,18.33
2022-12-05T01:45:42.590Z,21.30
2022-12-05T01:48:19.800Z,20.63
2022-12-05T01:50:48.673Z,23.33
2022-12-05T01:53:16.267Z,22.95
2022-12-05T01:55:43.933Z,24.35
2022-12-05T01:58:11.185Z,19.77
2022-12-05T02:00:39.753Z,19.38
2022-12-05T02:03:09.676Z,16.20
2022-12-05T02:05:38.311Z,14.77
2022-12-05T02:08:08.242Z,19.98
2022-12-05T02:10:43.080Z,21.63
2022-12-05T02:13:27.439Z,21.48
2022-12-05T02:16:04.476Z,15.65
2022-12-05T02:18:57.425Z,21.65
2022-12-05T02:21:35.864Z,17.90
2022-12-05T02:24:48.659Z,15.95
2022-12-05T02:27:54.674Z,20.17
2022-12-05T02:30:23.823Z,20.02
2022-12-05T02:33:09.063Z,17.88
2022-12-05T02:35:47.805Z,16.33
2022-12-05T02:38:52.981Z,19.40
2022-12-05T02:41:28.971Z,20.63
2022-12-05T02:44:32.270Z,19.85
2022-12-05T02:47:00.248Z,16.08
2022-12-05T02:49:35.281Z,17.33
2022-12-05T02:52:07.422Z,19.98
2022-12-05T02:54:39.206Z,15.52
2022-12-05T02:57:08.032Z,18.90
2022-12-05T02:59:34.981Z,17.75
2022-12-05T03:02:01.587Z,18.90
2022-12-05T03:04:30.360Z,17.50
2022-12-05T03:07:05.153Z,19.98
2022-12-05T03:09:37.295Z,20.70
2022-12-05T03:12:08.268Z,16.48
2022-12-05T03:14:43.784Z,16.50
2022-12-05T03:17:18.771Z,18.02
2022-12-05T03:20:03.263Z,18.63
2022-12-05T03:22:43.189Z,15.57
2022-12-05T03:25:12.303Z,18.77
2022-12-05T03:27:51.128Z,16.88
2022-12-05T03:30:20.697Z,18.90
2022-12-05T03:33:05.904Z,17.02
2022-12-05T03:35:53.946Z,17.35
2022-12-05T03:38:31.076Z,17.30
2022-12-05T03:41:05.345Z,17.35
2022-12-05T03:43:48.247Z,18.67
2022-12-05T03:46:15.013Z,17.23
2022-12-05T03:49:02.708Z,18.33
2022-12-05T03:51:36.167Z,18.35
2022-12-05T03:54:09.641Z,18.00
2022-12-05T03:56:43.726Z,16.35
2022-12-05T03:59:13.151Z,15.02
2022-12-05T04:01:42.538Z,14.77
2022-12-05T04:04:17.847Z,10.43
2022-12-05T04:06:51.834Z,12.32
2022-12-05T04:09:26.079Z,15.85
2022-12-05T04:11:58.100Z,18.65
2022-12-05T04:14:47.843Z,17.55
2022-12-05T04:17:46.986Z,17.40
2022-12-05T04:21:00.251Z,16.67
2022-12-05T04:23:27.959Z,14.43
2022-12-05T04:26:04.936Z,16.00
2022-12-05T04:28:40.349Z,15.20
2022-12-05T04:31:10.076Z,17.20
2022-12-05T04:33:52.829Z,17.10
2022-12-05T04:36:25.296Z,15.50
2022-12-05T04:38:58.131Z,10.15
2022-12-05T04:41:32.511Z,16.45
2022-12-05T04:44:04.173Z,15.32
2022-12-05T04:46:30.836Z,16.58
2022-12-05T04:49:02.270Z,19.95
2022-12-05T04:51:34.388Z,19.10
2022-12-05T04:54:10.128Z,16.67
2022-12-05T04:56:39.374Z,16.17
2022-12-05T04:59:06.042Z,18.15
2022-12-05T05:01:42.162Z,18.52
2022-12-05T05:06:48.662Z,17.23
2022-12-05T05:09:15.221Z,13.52
2022-12-05T05:11:41.949Z,15.93
2022-12-05T05:14:08.553Z,16.20
2022-12-05T05:16:41.006Z,18.63
2022-12-05T05:19:09.507Z,15.90
2022-12-05T05:21:41.425Z,17.52
2022-12-05T05:24:09.946Z,17.95
2022-12-05T05:26:39.524Z,17.27
2022-12-05T05:29:07.535Z,17.40
2022-12-05T05:31:34.197Z,16.98
2022-12-05T05:34:09.157Z,17.38
2022-12-05T05:36:37.103Z,17.88
2022-12-05T05:39:05.673Z,15.80
2022-12-05T05:41:34.710Z,19.45
2022-12-05T05:44:02.242Z,17.20
2022-12-05T05:46:33.399Z,16.65
2022-12-05T05:49:00.822Z,18.33
2022-12-05T05:51:30.593Z,17.23
2022-12-05T05:53:58.483Z,17.25
2022-12-05T05:56:25.966Z,17.15
2022-12-05T05:58:57.525Z,18.42
2022-12-05T06:01:24.599Z,15.55
2022-12-05T06:03:51.710Z,11.32
2022-12-05T06:06:19.441Z,14.15
2022-12-05T06:08:46.768Z,15.27
2022-12-05T06:11:25.692Z,15.18
2022-12-05T06:13:56.782Z,17.30
2022-12-05T06:16:23.475Z,17.52
2022-12-05T06:18:53.956Z,12.02
2022-12-05T06:21:22.069Z,13.50
2022-12-05T06:23:50.606Z,14.82
2022-12-05T06:26:20.234Z,17.63
2022-12-05T06:28:47.813Z,16.42
2022-12-05T06:31:17.955Z,16.02
2022-12-05T06:33:45.868Z,15.45
2022-12-05T06:36:16.517Z,15.95
2022-12-05T06:38:43.622Z,16.80
2022-12-05T06:41:14.610Z,15.48
2022-12-05T06:43:41.513Z,16.02
2022-12-05T06:46:10.516Z,14.52
2022-12-05T06:48:37.601Z,16.90
2022-12-05T06:51:07.068Z,15.02
2022-12-05T06:53:33.692Z,16.33
2022-12-05T06:56:06.408Z,13.77
2022-12-05T06:58:33.022Z,16.70
2022-12-05T07:01:18.819Z,16.67
2022-12-05T07:03:45.635Z,11.10
2022-12-05T07:06:12.293Z,17.63
2022-12-05T07:08:39.215Z,11.73
2022-12-05T07:11:05.935Z,15.10
2022-12-05T07:13:32.947Z,14.57
2022-12-05T07:16:00.493Z,8.55
2022-12-05T07:18:27.760Z,12.73
2022-12-05T07:21:14.876Z,14.23
2022-12-05T07:23:43.601Z,15.07
2022-12-05T07:26:13.995Z,15.60
2022-12-05T07:28:41.137Z,16.15
2022-12-05T07:31:14.261Z,16.33
2022-12-05T07:33:41.378Z,16.25
2022-12-05T07:36:14.851Z,15.35
2022-12-05T07:38:42.528Z,16.23
2022-12-05T07:41:13.450Z,15.32
2022-12-05T07:43:41.430Z,15.65
2022-12-05T07:46:11.586Z,14.65
2022-12-05T07:48:39.111Z,14.32
2022-12-05T07:51:08.130Z,12.80
2022-12-05T07:53:35.547Z,15.85
2022-12-05T07:56:04.117Z,13.60
2022-12-05T07:58:33.273Z,15.32
2022-12-05T08:01:08.760Z,15.63
2022-12-05T08:03:39.388Z,16.02
2022-12-05T08:06:11.583Z,14.40
2022-12-05T08:08:38.744Z,13.45
2022-12-05T08:11:15.455Z,15.07
2022-12-05T08:13:43.465Z,14.68
2022-12-05T08:16:13.912Z,12.20
2022-12-05T08:18:42.428Z,16.00
2022-12-05T08:21:13.550Z,15.55
2022-12-05T08:23:40.709Z,15.07
2022-12-05T08:26:13.463Z,16.25
2022-12-05T08:28:40.977Z,16.08
2022-12-05T08:31:16.625Z,13.68
2022-12-05T08:33:43.886Z,15.98
2022-12-05T08:36:14.045Z,14.95
2022-12-05T08:38:41.288Z,15.55
2022-12-05T08:41:10.993Z,14.63
2022-12-05T08:43:39.251Z,16.05
2022-12-05T08:46:08.238Z,15.43
2022-12-05T08:48:36.222Z,14.95
2022-12-05T08:51:10.693Z,13.77
2022-12-05T08:53:43.810Z,14.82
2022-12-05T08:56:12.184Z,13.32
2022-12-05T08:58:39.455Z,11.63
2022-12-05T09:01:17.825Z,11.00
2022-12-05T09:03:48.213Z,9.88
2022-12-05T09:06:21.408Z,11.55
2022-12-05T09:08:53.804Z,15.23
2022-12-05T09:11:24.192Z,15.05
2022-12-05T09:13:52.814Z,15.00
2022-12-05T09:16:22.669Z,16.38
2022-12-05T09:18:51.385Z,12.80
2022-12-05T09:21:20.638Z,9.23
2022-12-05T09:23:48.787Z,12.02
2022-12-05T09:28:57.377Z,12.48
2022-12-05T09:31:29.600Z,11.05
2022-12-05T09:33:56.613Z,12.55
2022-12-05T09:36:28.622Z,11.88
2022-12-05T09:38:59.103Z,13.15
2022-12-05T09:41:50.035Z,16.63
2022-12-05T09:44:34.123Z,16.63
2022-12-05T09:47:38.691Z,15.52
2022-12-05T09:50:36.879Z,16.25
2022-12-05T09:53:31.155Z,16.40
2022-12-05T09:56:06.202Z,14.52
2022-12-05T09:58:41.994Z,16.63
2022-12-05T10:01:36.727Z,16.05
2022-12-05T10:04:06.707Z,15.63
2022-12-05T10:06:47.370Z,15.95
2022-12-05T10:09:19.797Z,17.30
2022-12-05T10:12:31.029Z,15.02
2022-12-05T10:15:28.842Z,16.58
2022-12-05T10:18:25.157Z,16.58
2022-12-05T10:22:01.229Z,16.27
2022-12-05T10:25:05.040Z,17.02
2022-12-05T10:27:40.235Z,15.23
2022-12-05T10:30:17.881Z,18.42
2022-12-05T10:32:54.883Z,15.98
2022-12-05T10:35:27.707Z,16.80
2022-12-05T10:38:22.456Z,15.93
2022-12-05T10:40:52.882Z,17.25
2022-12-05T10:43:26.686Z,13.85
2022-12-05T10:45:53.597Z,17.10
2022-12-05T10:48:23.030Z,17.48
2022-12-05T10:50:52.522Z,17.08
2022-12-05T10:53:28.604Z,16.80
2022-12-05T10:56:28.688Z,16.55
2022-12-05T10:58:57.577Z,16.27
2022-12-05T11:01:26.199Z,17.25
2022-12-05T11:03:59.850Z,16.20
2022-12-05T11:06:31.619Z,17.95
2022-12-05T11:09:13.481Z,17.77
2022-12-05T11:11:40.444Z,10.45
2022-12-05T11:14:26.104Z,13.43
2022-12-05T11:16:55.495Z,18.38
2022-12-05T11:19:25.269Z,14.40
2022-12-05T11:21:53.722Z,14.48
2022-12-05T11:24:32.034Z,17.48
2022-12-05T11:27:32.301Z,16.27
2022-12-05T11:30:10.718Z,18.20
2022-12-05T11:32:37.357Z,18.58
2022-12-05T11:35:22.698Z,16.10
2022-12-05T11:37:56.869Z,15.88
2022-12-05T11:40:40.102Z,17.48
2022-12-05T11:43:32.997Z,18.63
2022-12-05T11:46:20.159Z,16.40
2022-12-05T11:49:18.083Z,19.17
2022-12-05T11:52:04.503Z,19.48
2022-12-05T11:57:35.016Z,19.13
2022-12-05T12:00:15.785Z,11.57
2022-12-05T12:03:01.026Z,20.17
2022-12-05T12:05:58.099Z,20.35
2022-12-05T12:08:30.441Z,19.65
2022-12-05T12:11:15.508Z,19.67
2022-12-05T12:14:00.730Z,17.70
2022-12-05T12:17:10.471Z,19.35
2022-12-05T12:20:03.579Z,22.25
2022-12-05T12:22:59.172Z,21.48
2022-12-05T12:26:08.329Z,22.65
2022-12-05T12:28:47.985Z,22.15
2022-12-05T12:31:31.945Z,23.13
2022-12-05T12:34:26.531Z,22.75
2022-12-05T12:37:06.198Z,23.17
2022-12-05T12:40:07.368Z,23.08
2022-12-05T12:42:40.015Z,22.02
2022-12-05T12:45:33.685Z,24.35
2022-12-05T12:48:25.981Z,21.20
2022-12-05T12:51:05.773Z,22.00
2022-12-05T12:55:02.316Z,21.48
2022-12-05T12:57:33.801Z,21.73
2022-12-05T13:00:12.326Z,22.48
2022-12-05T13:02:48.562Z,23.88
2022-12-05T13:05:47.220Z,22.83
2022-12-05T13:08:22.530Z,22.30
2022-12-05T13:10:50.075Z,22.77
2022-12-05T13:13:24.188Z,22.10
2022-12-05T13:15:57.983Z,22.15
2022-12-05T13:18:25.498Z,20.90
2022-12-05T13:20:56.602Z,20.45
2022-12-05T13:23:27.107Z,21.25
2022-12-05T13:25:56.881Z,22.48
2022-12-05T13:28:32.485Z,21.30
2022-12-05T13:31:02.683Z,20.67
2022-12-05T13:33:36.186Z,22.15
2022-12-05T13:36:28.413Z,20.65
2022-12-05T13:39:19.259Z,21.45
2022-12-05T13:42:14.074Z,21.58
2022-12-05T13:44:45.364Z,22.05
2022-12-05T13:47:32.307Z,22.30
2022-12-05T13:50:21.218Z,21.77
2022-12-05T13:52:55.291Z,20.60
2022-12-05T13:55:38.424Z,17.35
2022-12-05T13:58:21.766Z,20.55
2022-12-05T14:00:50.712Z,22.83
2022-12-05T14:03:40.281Z,20.35
2022-12-05T14:06:07.412Z,21.20
2022-12-05T14:08:52.678Z,23.73
2022-12-05T14:11:19.657Z,21.77
2022-12-05T14:13:46.445Z,21.13
2022-12-05T14:16:25.147Z,23.50
2022-12-05T14:19:33.899Z,23.85
2022-12-05T14:22:24.189Z,24.10
2022-12-05T14:25:04.460Z,22.75
2022-12-05T14:27:53.414Z,24.00
2022-12-05T14:30:30.042Z,23.48
2022-12-05T14:33:01.974Z,22.42
2022-12-05T14:35:42.541Z,23.75
2022-12-05T14:38:23.594Z,23.58
2022-12-05T14:40:51.460Z,24.10
2022-12-05T14:43:40.762Z,24.27
2022-12-05T14:46:15.819Z,22.05
2022-12-05T14:48:48.656Z,22.80
2022-12-05T14:51:30.303Z,24.17
2022-12-05T14:54:14.860Z,23.40
2022-12-05T14:56:50.619Z,16.83
2022-12-05T14:59:32.240Z,23.52
2022-12-05T15:02:02.075Z,24.02
2022-12-05T15:04:47.024Z,19.45
2022-12-05T15:07:35.114Z,16.58
2022-12-05T15:10:01.993Z,13.15
2022-12-05T15:12:46.985Z,24.88
2022-12-05T15:15:17.524Z,18.30
2022-12-05T15:17:53.385Z,23.98
2022-12-05T15:20:46.644Z,23.95
2022-12-05T15:23:43.200Z,17.17
2022-12-05T15:26:48.707Z,20.63
2022-12-05T15:29:23.292Z,21.27
2022-12-05T15:31:53.251Z,14.65
2022-12-05T15:34:47.828Z,15.73
2022-12-05T15:37:32.862Z,13.90
2022-12-05T15:40:02.439Z,22.10
2022-12-05T15:42:34.750Z,22.98
2022-12-05T15:45:13.849Z,22.30
2022-12-05T15:48:05.128Z,23.42
2022-12-05T15:50:42.051Z,22.30
2022-12-05T15:53:14.671Z,23.25
2022-12-05T15:55:56.548Z,23.73
2022-12-05T15:58:27.431Z,21.85
2022-12-05T16:01:01.731Z,20.33
2022-12-05T16:03:36.910Z,20.92
2022-12-05T16:06:29.438Z,24.25
2022-12-05T16:09:01.412Z,21.60
2022-12-05T16:11:28.238Z,22.75
2022-12-05T16:14:01.084Z,19.70
2022-12-05T16:16:32.626Z,26.35
2022-12-05T16:19:07.956Z,27.77
2022-12-05T16:21:39.423Z,27.23
2022-12-05T16:24:11.261Z,28.30
2022-12-05T16:26:39.791Z,27.13
2022-12-05T16:29:09.559Z,29.00
2022-12-05T16:31:36.580Z,30.60
2022-12-05T16:34:06.906Z,30.08
2022-12-05T16:36:34.913Z,29.30
2022-12-05T16:39:07.692Z,31.65
2022-12-05T16:41:40.788Z,30.77
2022-12-05T16:44:46.449Z,28.73
2022-12-05T16:47:42.140Z,33.05
2022-12-05T16:50:22.628Z,33.30
2022-12-05T16:52:50.278Z,33.72
2022-12-05T16:55:19.736Z,31.35
2022-12-05T16:57:46.435Z,31.65
2022-12-05T17:00:16.002Z,30.55
2022-12-05T17:02:42.589Z,33.75
2022-12-05T17:05:14.065Z,33.35
2022-12-05T17:07:40.748Z,33.33
2022-12-05T17:10:08.177Z,33.78
2022-12-05T17:12:34.934Z,35.22
2022-12-05T17:15:01.791Z,33.85
2022-12-05T17:17:30.759Z,35.47
2022-12-05T17:20:01.516Z,32.95
2022-12-05T17:22:28.347Z,35.78
2022-12-05T17:24:58.944Z,36.88
2022-12-05T17:27:25.749Z,33.33
2022-12-05T17:29:52.404Z,37.60
2022-12-05T17:32:19.073Z,36.83
2022-12-05T17:34:45.637Z,36.33
2022-12-05T17:37:12.234Z,34.08
2022-12-05T17:39:39.051Z,33.90
2022-12-05T17:42:05.684Z,35.42
2022-12-05T17:44:37.936Z,32.83
2022-12-05T17:47:07.998Z,30.65
2022-12-05T17:49:35.125Z,29.20
2022-12-05T17:54:52.096Z,26.00
2022-12-05T17:57:19.862Z,27.42
2022-12-05T17:59:46.484Z,27.23
2022-12-05T18:02:15.219Z,27.17
2022-12-05T18:04:41.777Z,31.75
2022-12-05T18:07:08.435Z,32.58
2022-12-05T18:09:35.094Z,32.10
2022-12-05T18:12:02.309Z,32.13
2022-12-05T18:14:28.996Z,33.70
2022-12-05T18:16:56.210Z,36.08
2022-12-05T18:19:24.941Z,40.85
2022-12-05T18:21:51.519Z,38.65
2022-12-05T18:24:18.406Z,47.55
2022-12-05T18:26:45.054Z,35.10
2022-12-05T18:29:16.161Z,117.53
2022-12-05T18:31:56.335Z,34.95
2022-12-05T18:34:25.842Z,43.83
2022-12-05T18:36:52.458Z,40.13
2022-12-05T18:39:19.030Z,36.17
2022-12-05T18:41:45.646Z,42.67
2022-12-05T18:44:12.736Z,39.30
2022-12-05T18:46:39.617Z,36.30
2022-12-05T18:49:06.496Z,33.15
2022-12-05T18:51:33.187Z,34.10
2022-12-05T18:54:00.207Z,44.47
2022-12-05T18:56:31.436Z,37.17
2022-12-05T18:59:02.640Z,35.88
2022-12-05T19:01:32.636Z,34.67
2022-12-05T19:04:01.105Z,31.38
2022-12-05T19:06:30.159Z,30.60
2022-12-05T19:08:59.334Z,44.42
2022-12-05T19:11:27.322Z,36.47
2022-12-05T19:14:00.684Z,35.65
2022-12-05T19:16:29.496Z,34.40
2022-12-05T19:18:58.900Z,31.55
2022-12-05T19:21:27.067Z,30.30
2022-12-05T19:23:54.279Z,28.77
2022-12-05T19:26:21.772Z,30.38
2022-12-05T19:28:49.121Z,29.60
2022-12-05T19:31:20.606Z,30.05
2022-12-05T19:33:49.866Z,32.63
2022-12-05T19:36:20.210Z,30.85
2022-12-05T19:38:48.562Z,33.75
2022-12-05T19:41:16.665Z,31.33
2022-12-05T19:43:52.285Z,32.00
2022-12-05T19:46:30.859Z,31.88
2022-12-05T19:48:59.299Z,32.65
2022-12-05T19:51:26.530Z,32.95
2022-12-05T19:53:54.350Z,32.17
2022-12-05T19:56:23.929Z,33.97
2022-12-05T19:58:52.462Z,31.85
2022-12-05T20:01:21.037Z,33.17
2022-12-05T20:03:53.671Z,30.55
2022-12-05T20:06:21.632Z,29.35
2022-12-05T20:08:58.816Z,31.73
2022-12-05T20:11:26.600Z,31.55
2022-12-05T20:13:55.484Z,33.90
2022-12-05T20:16:25.835Z,34.75
2022-12-05T20:18:54.160Z,34.03
2022-12-05T20:21:23.010Z,40.30
2022-12-05T20:23:50.543Z,39.33
2022-12-05T20:26:22.463Z,41.83
2022-12-05T20:28:49.805Z,54.47
2022-12-05T20:31:24.144Z,44.70
2022-12-05T20:33:53.797Z,49.60
2022-12-05T20:36:26.200Z,42.67
2022-12-05T20:39:01.588Z,41.28
2022-12-05T20:41:28.751Z,63.08
2022-12-05T20:43:59.716Z,46.80
2022-12-05T20:46:28.021Z,40.95
2022-12-05T20:48:56.362Z,43.05
2022-12-05T20:51:27.359Z,41.47
2022-12-05T20:53:54.054Z,41.80
2022-12-05T20:56:26.915Z,42.28
2022-12-05T20:58:56.513Z,37.03
2022-12-05T21:01:24.657Z,39.97
2022-12-05T21:03:52.523Z,38.90
2022-12-05T21:06:25.396Z,42.42
2022-12-05T21:08:52.947Z,35.45
2022-12-05T21:11:20.797Z,38.63
2022-12-05T21:13:47.416Z,39.70
2022-12-05T21:16:17.302Z,39.22
2022-12-05T21:18:44.945Z,38.72
2022-12-05T21:21:14.776Z,40.00
2022-12-05T21:23:46.790Z,41.70
2022-12-05T21:26:15.795Z,39.83
2022-12-05T21:28:43.389Z,39.22
2022-12-05T21:31:13.481Z,43.88
2022-12-05T21:33:41.339Z,41.40
2022-12-05T21:36:09.308Z,44.83
2022-12-05T21:38:36.095Z,53.67
2022-12-05T21:41:04.226Z,41.70
2022-12-05T21:43:32.984Z,39.85
2022-12-05T21:45:59.644Z,42.08
2022-12-05T21:48:26.563Z,42.55
2022-12-05T21:50:53.632Z,42.40
2022-12-05T21:53:21.071Z,41.58
2022-12-05T21:55:48.125Z,43.58
2022-12-05T21:58:17.620Z,43.13
2022-12-05T22:00:44.257Z,46.20
2022-12-05T22:03:14.873Z,51.53
2022-12-05T22:05:42.113Z,43.05
2022-12-05T22:08:08.906Z,41.90
2022-12-05T22:10:36.012Z,42.92
2022-12-05T22:13:03.502Z,38.28
2022-12-05T22:15:30.423Z,40.58
2022-12-05T22:17:57.033Z,49.28
2022-12-05T22:20:23.942Z,49.97
2022-12-05T22:22:50.608Z,51.08
2022-12-05T22:25:17.239Z,50.25
2022-12-05T22:27:43.912Z,44.70
2022-12-05T22:30:10.858Z,45.92
2022-12-05T22:32:37.442Z,45.20
2022-12-05T22:35:04.633Z,42.50
2022-12-05T22:37:31.660Z,39.92
2022-12-05T22:39:59.013Z,38.40
2022-12-05T22:42:28.684Z,39.38
2022-12-05T22:44:56.321Z,37.53
2022-12-05T22:47:23.354Z,40.95
2022-12-05T22:49:49.903Z,41.05
2022-12-05T22:52:16.565Z,39.15
2022-12-05T22:54:43.184Z,41.45
2022-12-05T22:57:09.754Z,41.72
2022-12-05T22:59:36.381Z,40.00
2022-12-05T23:02:02.981Z,40.85
2022-12-05T23:04:29.614Z,40.50
2022-12-05T23:06:58.812Z,38.75
2022-12-05T23:09:25.408Z,42.65
2022-12-05T23:11:52.033Z,42.55
2022-12-05T23:14:18.743Z,42.03
2022-12-05T23:16:45.364Z,40.72
2022-12-05T23:19:12.008Z,38.33
2022-12-05T23:21:40.325Z,43.40
2022-12-05T23:24:10.540Z,41.22
2022-12-05T23:26:41.647Z,43.58
2022-12-05T23:29:09.301Z,40.25
2022-12-05T23:31:36.183Z,38.90
2022-12-05T23:34:04.228Z,41.05
2022-12-05T23:36:33.312Z,41.08
2022-12-05T23:39:00.298Z,41.70
2022-12-05T23:41:27.579Z,39.45
2022-12-05T23:43:54.914Z,39.20
2022-12-05T23:46:24.040Z,36.95
2022-12-05T23:48:51.812Z,39.10
2022-12-05T23:51:21.242Z,38.42
2022-12-05T23:53:51.800Z,36.22
2022-12-05T23:56:20.540Z,36.35
2022-12-05T23:58:47.426Z,34.97
